Latest Weather Observations for Troughton Island

IDW60801

Issued at 1:33 pm WST Sunday 26 February 2017 (issued every 30 minutes, with the page automatically refreshed every 10 minutes)

About weather observations | Map of weather stations | Latest weather observations for WA | Other Formats
Station Details ID: 001007 Name: TROUGHTON ISLAND Lat: -13.75 Lon: 126.15 Height: 6.0 m
Data from the previous 72 hours. | See also: Recent months at Troughton Island
Date/Time
WST
Temp
°C
App
Temp
°C
Dew
Point
°C
Rel
Hum
%
Delta-T
°C
Wind Press
QNH
hPa
Press
MSL
hPa
Rain since
9am
mm
Dir  Spd
km/h
Gust
km/h
Spd
kts
Gust
kts
26/01:30pm 31.1 34.1 24.0 66 4.9 NW 15 17 8 9 1008.0 1007.9 0.0
26/01:00pm 30.8 33.8 24.0 67 4.7 NW 15 19 8 10 1008.3 1008.2 0.0
26/12:30pm 30.6 33.7 23.5 66 4.9 NW 13 15 7 8 1008.7 1008.6 0.0
26/12:00pm 30.8 34.7 24.2 68 4.6 NW 11 15 6 8 1009.1 1009.0 0.0
26/11:30am 30.3 33.8 24.2 70 4.2 NW 13 15 7 8 1009.5 1009.4 0.0
26/11:00am 30.6 35.0 24.5 70 4.3 W 9 11 5 6 1009.7 1009.6 0.0
26/10:30am 30.0 34.5 23.9 70 4.2 WNW 7 9 4 5 1010.0 1009.9 0.0
26/10:00am 30.7 35.5 24.4 69 4.4 W 7 9 4 5 1010.0 1009.9 0.0
26/09:30am 31.3 36.1 24.2 66 5.0 S 6 9 3 5 1010.1 1010.0 0.0
26/09:00am 31.0 35.4 24.4 68 4.6 SW 9 11 5 6 1010.4 1010.3 0.0
26/08:30am 30.4 35.0 24.1 69 4.4 SSW 7 9 4 5 1010.2 1010.1 0.0
26/08:00am 29.8 34.3 23.7 70 4.2 WSW 6 7 3 4 1009.9 1009.8 0.0
26/07:30am 29.8 34.5 24.0 71 4.0 ESE 6 9 3 5 1009.8 1009.7 0.0
26/07:00am 29.4 34.1 24.3 74 3.6 SE 7 9 4 5 1009.7 1009.6 0.0
26/06:30am 28.4 34.5 24.4 79 2.8 CALM 0 0 0 0 1009.3 1009.2 0.0
26/06:00am 27.3 33.4 24.4 84 2.0 CALM 0 0 0 0 1009.0 1008.9 0.0
26/05:30am 27.1 32.3 24.2 84 2.0 NNW 4 6 2 3 1009.0 1008.9 0.0
26/05:00am 27.0 31.8 24.1 84 2.0 NNW 6 6 3 3 1008.9 1008.8 0.0
26/04:30am 27.2 31.9 23.9 82 2.3 NNW 6 7 3 4 1009.0 1008.9 0.0
26/04:00am 27.0 31.3 23.7 82 2.3 NNW 7 9 4 5 1008.7 1008.6 0.0
26/03:30am 27.8 32.3 24.0 80 2.6 N 7 9 4 5 1008.4 1008.3 0.0
26/03:00am 27.1 31.5 23.8 82 2.3 NNW 7 9 4 5 1008.4 1008.3 0.0
26/02:30am 26.8 30.8 23.7 83 2.1 NNW 9 11 5 6 1008.7 1008.6 0.0
26/02:00am 27.3 30.8 24.2 83 2.1 NW 13 15 7 8 1008.8 1008.7 0.0
26/01:30am 27.4 31.0 24.3 83 2.1 NNW 13 15 7 8 1009.2 1009.1 0.0
26/01:00am 27.4 31.3 24.3 83 2.1 NNW 11 13 6 7 1009.7 1009.6 0.0
26/12:30am 27.6 31.6 24.4 83 2.2 NW 11 15 6 8 1010.1 1010.0 0.0
26/12:00am 28.1 32.5 24.5 81 2.5 N 9 9 5 5 1010.2 1010.1 0.0
 
Date/Time
WST
Temp
°C
App
Temp
°C
Dew
Point
°C
Rel
Hum
%
Delta-T
°C
Wind Press
QNH
hPa
Press
MSL
hPa
Rain since
9am
mm
Dir  Spd
km/h
Gust
km/h
Spd
kts
Gust
kts
25/11:30pm 27.9 32.0 24.5 82 2.4 NNW 11 13 6 7 1010.6 1010.5 0.0
25/11:00pm 28.5 32.8 24.9 81 2.5 N 11 13 6 7 1010.8 1010.7 0.0
25/10:30pm 28.3 32.4 24.5 80 2.6 NNW 11 15 6 8 1011.0 1010.9 0.0
25/10:00pm 28.5 33.3 25.1 82 2.4 N 9 13 5 7 1011.0 1010.9 0.0
25/09:30pm 28.6 33.7 25.0 81 2.5 N 7 9 4 5 1011.1 1011.0 0.0
25/09:00pm 28.5 33.2 24.9 81 2.5 NNW 9 11 5 6 1011.0 1010.9 0.0
25/08:30pm 28.3 32.4 24.5 80 2.6 NNW 11 15 6 8 1010.8 1010.7 0.0
25/08:00pm 28.5 32.7 24.7 80 2.7 NNW 11 15 6 8 1010.8 1010.7 0.0
25/07:30pm 28.9 32.8 24.9 79 2.8 N 13 17 7 9 1010.2 1010.1 0.0
25/07:00pm 29.1 33.0 24.9 78 2.9 N 13 17 7 9 1009.6 1009.5 0.0
25/06:30pm 29.2 32.9 24.5 76 3.3 N 13 19 7 10 1009.2 1009.1 0.0
25/06:00pm 29.3 32.8 24.8 77 3.2 N 15 19 8 10 1008.7 1008.6 0.0
25/05:30pm 29.5 33.4 24.8 76 3.3 N 13 19 7 10 1008.3 1008.2 0.0
25/05:00pm 29.7 33.7 25.0 76 3.3 N 13 17 7 9 1008.1 1008.0 0.0
25/04:30pm 29.8 33.2 24.7 74 3.6 N 15 19 8 10 1007.8 1007.7 0.0
25/04:00pm 30.5 34.2 25.1 73 3.8 N 15 20 8 11 1007.8 1007.7 0.0
25/03:30pm 30.1 33.8 25.2 75 3.5 N 15 20 8 11 1007.9 1007.8 0.0
25/03:00pm 31.3 35.3 25.6 71 4.1 NNW 15 22 8 12 1008.2 1008.1 0.0
25/02:30pm 31.1 34.1 25.2 71 4.2 N 19 22 10 12 1008.6 1008.5 0.0
25/02:00pm 31.6 35.1 25.5 70 4.3 NNW 17 22 9 12 1008.9 1008.8 0.0
25/01:30pm 32.0 35.9 26.1 71 4.2 N 17 22 9 12 1009.2 1009.1 0.0
25/01:00pm 31.6 35.3 25.7 71 4.2 NNW 17 20 9 11 1009.3 1009.2 0.0
25/12:30pm 30.5 34.5 25.6 75 3.5 N 15 20 8 11 1009.7 1009.6 0.0
25/12:00pm 30.9 35.0 25.7 74 3.7 NNW 15 19 8 10 1010.1 1010.0 0.0
25/11:30am 30.5 34.5 25.6 75 3.5 NNW 15 20 8 11 1010.6 1010.5 0.0
25/11:00am 31.7 36.1 26.3 73 3.9 NNW 15 20 8 11 1010.8 1010.7 0.0
25/10:30am 31.8 36.2 26.8 75 3.6 NNW 17 22 9 12 1010.8 1010.7 0.0
25/10:00am 30.9 35.0 26.4 77 3.2 NNW 17 20 9 11 1011.0 1010.9 0.0
25/09:30am 31.3 35.2 26.1 74 3.7 NW 17 20 9 11 1010.9 1010.8 0.0
25/09:00am 30.8 34.9 25.8 74 3.6 NNW 15 19 8 10 1010.9 1010.8 0.0
25/08:30am 30.6 34.1 26.3 78 3.1 NNW 20 24 11 13 1010.9 1010.8 0.0
25/08:00am 30.4 34.5 26.3 79 2.9 NNW 17 20 9 11 1010.7 1010.6 0.0
25/07:30am 30.1 34.7 26.5 81 2.6 NNW 15 17 8 9 1010.6 1010.5 0.0
25/07:00am 29.7 34.4 26.7 84 2.2 NW 15 17 8 9 1010.3 1010.2 0.0
25/06:30am 28.8 33.7 26.4 87 1.7 WNW 13 17 7 9 1010.2 1010.1 0.0
25/06:00am 28.5 32.9 26.3 88 1.6 WNW 15 19 8 10 1010.0 1009.9 0.0
25/05:30am 28.4 32.8 26.2 88 1.6 WNW 15 20 8 11 1009.8 1009.7 0.0
25/05:00am 28.5 32.4 26.1 87 1.7 WNW 17 19 9 10 1009.6 1009.5 0.0
25/04:30am 28.5 32.2 26.3 88 1.6 W 19 22 10 12 1009.2 1009.1 0.0
25/04:00am 28.5 32.2 26.3 88 1.6 WNW 19 20 10 11 1009.1 1009.0 0.0
25/03:30am 28.6 32.2 26.2 87 1.7 WNW 19 20 10 11 1008.9 1008.8 0.0
25/03:00am 28.7 32.8 26.3 87 1.7 WNW 17 22 9 12 1008.8 1008.7 0.0
25/02:30am 28.5 32.6 26.3 88 1.6 NW 17 20 9 11 1008.8 1008.7 0.0
25/02:00am 28.6 32.7 26.4 88 1.6 WNW 17 20 9 11 1008.9 1008.8 0.0
25/01:30am 28.8 32.4 26.4 87 1.7 NW 20 24 11 13 1009.0 1008.9 0.0
25/01:00am 28.8 32.0 26.4 87 1.7 NW 22 28 12 15 1009.0 1008.9 0.0
25/12:30am 28.7 31.1 26.3 87 1.7 NNW 26 30 14 16 1009.1 1009.0 0.0
25/12:00am 28.7 31.2 26.5 88 1.6 NW 26 30 14 16 1009.4 1009.3 0.0
 
Date/Time
WST
Temp
°C
App
Temp
°C
Dew
Point
°C
Rel
Hum
%
Delta-T
°C
Wind Press
QNH
hPa
Press
MSL
hPa
Rain since
9am
mm
Dir  Spd
km/h
Gust
km/h
Spd
kts
Gust
kts
24/11:30pm 28.8 31.6 26.4 87 1.7 NW 24 30 13 16 1009.6 1009.5 0.0
24/11:00pm 29.0 31.7 26.8 88 1.6 NW 26 32 14 17 1009.9 1009.8 0.0
24/10:30pm 28.9 31.9 26.7 88 1.6 NW 24 30 13 16 1010.3 1010.2 0.0
24/10:00pm 29.0 32.2 27.0 89 1.4 NW 24 28 13 15 1010.3 1010.2 0.0
24/09:30pm 29.2 32.4 27.0 88 1.6 NW 24 30 13 16 1010.1 1010.0 0.0
24/09:00pm 29.2 32.4 27.0 88 1.6 NW 24 30 13 16 1010.0 1009.9 0.0
24/08:30pm 29.2 32.9 27.2 89 1.4 NW 22 28 12 15 1009.7 1009.6 0.0
24/08:00pm 29.3 33.1 27.3 89 1.4 NW 22 28 12 15 1009.3 1009.2 0.0
24/07:30pm 29.5 33.3 27.3 88 1.6 WNW 22 26 12 14 1008.9 1008.8 0.0
24/07:00pm 29.6 33.5 27.4 88 1.6 WNW 22 28 12 15 1008.6 1008.5 0.0
24/06:30pm 29.6 33.1 27.4 88 1.6 W 24 32 13 17 1008.5 1008.4 0.0
24/06:00pm 29.8 33.4 27.6 88 1.6 W 24 28 13 15 1008.4 1008.3 0.0
24/05:30pm 30.5 34.1 27.5 84 2.2 W 24 28 13 15 1008.1 1008.0 0.0
24/05:00pm 31.1 34.8 27.7 82 2.5 WNW 24 28 13 15 1007.8 1007.7 0.0
24/04:30pm 31.4 34.6 27.5 80 2.8 W 26 30 14 16 1007.6 1007.5 0.0
24/04:00pm 31.6 35.0 27.3 78 3.1 WNW 24 28 13 15 1007.7 1007.6 0.0
24/03:30pm 32.1 36.1 27.6 77 3.3 WNW 22 28 12 15 1007.3 1007.2 0.0
24/03:00pm 32.5 36.8 27.5 75 3.6 WNW 20 26 11 14 1007.2 1007.1 0.0
24/02:30pm 32.9 37.5 27.6 73 3.9 W 19 22 10 12 1007.5 1007.4 0.0
24/02:00pm 33.0 37.5 27.5 73 4.0 W 19 22 10 12 1007.9 1007.8 0.0
24/01:30pm 33.0 37.7 27.3 72 4.1 W 17 20 9 11 1008.5 1008.4 0.0
24/01:00pm 32.9 37.6 27.2 72 4.1 WSW 17 20 9 11 1008.8 1008.7 0.0
24/12:30pm 32.8 37.9 27.3 73 4.0 W 15 19 8 10 1009.0 1008.9 0.0
24/12:00pm 32.3 36.9 27.1 74 3.8 WSW 17 19 9 10 1009.6 1009.5 0.0
24/11:30am 32.5 36.7 27.3 74 3.8 WSW 20 22 11 12 1010.0 1009.9 0.0
24/11:00am 32.3 36.0 27.1 74 3.8 WSW 22 24 12 13 1010.1 1010.0 0.0
24/10:30am 32.0 35.6 27.0 75 3.6 WSW 22 26 12 14 1010.5 1010.4 0.0
24/10:00am 32.0 36.0 27.0 75 3.6 SW 20 24 11 13 1010.9 1010.8 0.0
24/09:30am 31.2 34.3 26.9 78 3.1 SW 24 30 13 16 1011.1 1011.0 0.0
24/09:00am 31.3 34.6 27.2 79 3.0 SW 24 30 13 16 1011.2 1011.1 0.0
24/08:30am 30.8 33.0 26.7 79 2.9 SW 28 32 15 17 1011.4 1011.3 0.0
24/08:00am 30.4 32.7 26.8 81 2.6 SW 28 32 15 17 1011.3 1011.2 0.0
24/07:30am 29.9 32.5 26.7 83 2.3 WSW 26 32 14 17 1011.4 1011.3 0.0
24/07:00am 29.5 31.9 26.3 83 2.3 WSW 26 32 14 17 1011.2 1011.1 0.0
24/06:30am 28.9 31.3 26.3 86 1.9 WSW 26 32 14 17 1010.8 1010.7 0.0
24/06:00am 28.7 30.4 26.5 88 1.6 WSW 30 35 16 19 1010.7 1010.6 0.0
24/05:30am 28.7 31.2 26.5 88 1.6 WSW 26 32 14 17 1010.3 1010.2 0.0
24/05:00am 28.5 31.0 26.5 89 1.4 W 26 35 14 19 1009.8 1009.7 0.0
24/04:30am 28.7 30.8 26.5 88 1.6 WSW 28 33 15 18 1009.6 1009.5 0.0
24/04:00am 28.7 30.7 26.3 87 1.7 WSW 28 32 15 17 1009.6 1009.5 0.0
24/03:30am 28.8 31.0 26.6 88 1.6 WSW 28 33 15 18 1009.7 1009.6 0.0
24/03:00am 28.8 31.1 26.8 89 1.4 WSW 28 32 15 17 1009.5 1009.4 0.0
24/02:30am 28.7 30.9 26.7 89 1.4 WSW 28 33 15 18 1009.5 1009.4 0.0
24/02:00am 28.8 30.6 26.6 88 1.6 WSW 30 33 16 18 1009.6 1009.5 0.0
24/01:30am 28.8 31.3 27.0 90 1.3 WSW 28 32 15 17 1009.8 1009.7 0.0
24/01:00am 28.9 31.4 27.1 90 1.3 WSW 28 32 15 17 1010.1 1010.0 0.0
24/12:30am 28.8 31.6 27.0 90 1.3 WSW 26 30 14 16 1010.4 1010.3 0.0
24/12:00am 28.9 32.2 27.1 90 1.3 WSW 24 28 13 15 1010.5 1010.4 0.0
 
Date/Time
WST
Temp
°C
App
Temp
°C
Dew
Point
°C
Rel
Hum
%
Delta-T
°C
Wind Press
QNH
hPa
Press
MSL
hPa
Rain since
9am
mm
Dir  Spd
km/h
Gust
km/h
Spd
kts
Gust
kts
23/11:30pm 29.0 32.2 27.0 89 1.4 WSW 24 30 13 16 1010.6 1010.5 0.0
23/11:00pm 29.0 32.3 27.2 90 1.3 WSW 24 30 13 16 1010.8 1010.7 0.0
23/10:30pm 29.2 31.9 27.4 90 1.3 WSW 28 32 15 17 1011.1 1011.0 0.0
23/10:00pm 29.1 32.8 27.1 89 1.4 WSW 22 28 12 15 1011.0 1010.9 0.0
23/09:30pm 29.2 32.9 27.2 89 1.4 WSW 22 26 12 14 1011.0 1010.9 0.0
23/09:00pm 29.3 33.0 27.1 88 1.6 WSW 22 26 12 14 1010.7 1010.6 0.0
23/08:30pm 29.2 32.9 27.2 89 1.4 WSW 22 26 12 14 1010.6 1010.5 0.0
23/08:00pm 29.3 33.3 27.1 88 1.6 W 20 24 11 13 1010.3 1010.2 0.0
23/07:30pm 29.4 33.4 27.0 87 1.7 W 20 22 11 12 1009.9 1009.8 0.0
23/07:00pm 29.4 33.2 26.8 86 1.9 W 20 20 11 11 1009.8 1009.7 0.0
23/06:30pm 29.4 33.1 26.6 85 2.0 WNW 20 22 11 12 1009.4 1009.3 0.0
23/06:00pm 29.8 33.6 26.8 84 2.2 W 20 24 11 13 1009.0 1008.9 0.0
23/05:30pm 30.5 34.5 27.1 82 2.5 W 20 24 11 13 1008.8 1008.7 0.0
23/05:00pm 31.3 35.4 27.2 79 3.0 W 20 26 11 14 1008.5 1008.4 0.0
23/04:30pm 31.6 35.4 26.8 75 3.5 W 20 24 11 13 1008.1 1008.0 0.0
23/04:00pm 32.3 36.3 26.8 73 4.0 WNW 19 20 10 11 1008.0 1007.9 0.0
23/03:30pm 32.2 36.5 26.7 72 4.0 W 17 19 9 10 1008.0 1007.9 0.0
23/03:00pm 32.0 36.2 26.5 72 4.0 WSW 17 20 9 11 1008.1 1008.0 0.0
23/02:30pm 32.5 36.4 26.6 71 4.2 WSW 19 20 10 11 1008.2 1008.1 0.0
23/02:00pm 32.4 36.4 26.7 72 4.1 WSW 19 20 10 11 1008.2 1008.1 0.0

Other Formats:

Comma delimited format used in spreadsheet applications
http://www.bom.gov.au/fwo/IDW60801/IDW60801.94102.axf

JavaScript Object Notation format (JSON) in row-major order
http://www.bom.gov.au/fwo/IDW60801/IDW60801.94102.json